sensor_id;sensor_type;location;lat;lon;timestamp;noise_LAeq;noise_LA_min;noise_LA_max;noise_LA01;noise_LA95
18377;Laerm;9315;52.624;13.544;2023-06-19T00:02:13;55.68;37.96;74.30;;
18377;Laerm;9315;52.624;13.544;2023-06-19T00:04:40;61.22;37.42;78.91;;
18377;Laerm;9315;52.624;13.544;2023-06-19T00:07:07;46.46;40.46;55.33;;
18377;Laerm;9315;52.624;13.544;2023-06-19T00:09:34;47.01;41.91;57.92;;
18377;Laerm;9315;52.624;13.544;2023-06-19T00:12:01;46.88;40.56;56.26;;
18377;Laerm;9315;52.624;13.544;2023-06-19T00:14:31;55.68;42.32;72.83;;
18377;Laerm;9315;52.624;13.544;2023-06-19T00:16:58;45.01;38.85;51.78;;
18377;Laerm;9315;52.624;13.544;2023-06-19T00:19:27;52.42;39.86;68.49;;
18377;Laerm;9315;52.624;13.544;2023-06-19T00:21:54;44.20;37.80;51.89;;
18377;Laerm;9315;52.624;13.544;2023-06-19T00:24:24;47.04;41.57;55.19;;
18377;Laerm;9315;52.624;13.544;2023-06-19T00:26:51;54.81;38.09;72.47;;
18377;Laerm;9315;52.624;13.544;2023-06-19T00:29:18;57.71;36.35;74.31;;
18377;Laerm;9315;52.624;13.544;2023-06-19T00:31:45;42.70;36.94;49.76;;
18377;Laerm;9315;52.624;13.544;2023-06-19T00:34:12;55.30;40.54;73.60;;
18377;Laerm;9315;52.624;13.544;2023-06-19T00:36:39;45.81;40.38;52.89;;
18377;Laerm;9315;52.624;13.544;2023-06-19T00:39:07;55.79;38.92;74.36;;
18377;Laerm;9315;52.624;13.544;2023-06-19T00:41:36;52.37;40.20;67.57;;
18377;Laerm;9315;52.624;13.544;2023-06-19T00:44:04;47.78;41.51;56.16;;
18377;Laerm;9315;52.624;13.544;2023-06-19T00:46:31;45.65;38.70;54.78;;
18377;Laerm;9315;52.624;13.544;2023-06-19T00:48:59;53.54;41.08;71.38;;
18377;Laerm;9315;52.624;13.544;2023-06-19T00:51:26;59.80;43.39;78.09;;
18377;Laerm;9315;52.624;13.544;2023-06-19T00:53:53;48.50;41.95;58.91;;
18377;Laerm;9315;52.624;13.544;2023-06-19T00:56:20;55.06;42.55;70.50;;
18377;Laerm;9315;52.624;13.544;2023-06-19T00:58:50;52.66;40.48;68.09;;
18377;Laerm;9315;52.624;13.544;2023-06-19T01:01:17;55.37;40.05;70.19;;
18377;Laerm;9315;52.624;13.544;2023-06-19T01:03:46;46.59;39.96;57.70;;
18377;Laerm;9315;52.624;13.544;2023-06-19T01:06:21;60.51;39.77;79.22;;
18377;Laerm;9315;52.624;13.544;2023-06-19T01:09:02;59.50;40.19;74.07;;
18377;Laerm;9315;52.624;13.544;2023-06-19T01:11:47;54.40;41.77;72.48;;
18377;Laerm;9315;52.624;13.544;2023-06-19T01:14:30;53.42;40.64;69.79;;
18377;Laerm;9315;52.624;13.544;2023-06-19T01:17:00;57.08;41.62;71.56;;
18377;Laerm;9315;52.624;13.544;2023-06-19T01:19:28;49.10;41.45;58.62;;
18377;Laerm;9315;52.624;13.544;2023-06-19T01:21:55;49.44;40.88;60.58;;
18377;Laerm;9315;52.624;13.544;2023-06-19T01:24:22;50.79;42.52;60.62;;
18377;Laerm;9315;52.624;13.544;2023-06-19T01:26:50;56.98;40.41;74.28;;
18377;Laerm;9315;52.624;13.544;2023-06-19T01:29:17;53.66;40.28;69.06;;
18377;Laerm;9315;52.624;13.544;2023-06-19T01:32:08;58.63;41.01;74.98;;
18377;Laerm;9315;52.624;13.544;2023-06-19T01:34:37;49.81;42.57;57.95;;
18377;Laerm;9315;52.624;13.544;2023-06-19T01:37:07;57.98;41.16;73.53;;
18377;Laerm;9315;52.624;13.544;2023-06-19T01:39:37;59.69;42.40;74.97;;
18377;Laerm;9315;52.624;13.544;2023-06-19T01:42:07;52.21;42.71;64.50;;
18377;Laerm;9315;52.624;13.544;2023-06-19T01:44:36;50.21;42.53;60.56;;
18377;Laerm;9315;52.624;13.544;2023-06-19T01:47:11;50.49;41.91;60.64;;
18377;Laerm;9315;52.624;13.544;2023-06-19T01:49:39;56.73;42.82;73.43;;
18377;Laerm;9315;52.624;13.544;2023-06-19T01:52:06;57.31;43.48;71.86;;
18377;Laerm;9315;52.624;13.544;2023-06-19T01:54:33;59.33;44.22;72.94;;
18377;Laerm;9315;52.624;13.544;2023-06-19T01:57:00;59.08;44.00;74.07;;
18377;Laerm;9315;52.624;13.544;2023-06-19T01:59:27;51.61;43.88;68.43;;
18377;Laerm;9315;52.624;13.544;2023-06-19T02:01:54;59.81;44.71;76.10;;
18377;Laerm;9315;52.624;13.544;2023-06-19T02:04:22;59.75;43.07;78.10;;
18377;Laerm;9315;52.624;13.544;2023-06-19T02:06:49;55.24;44.68;70.81;;
18377;Laerm;9315;52.624;13.544;2023-06-19T02:09:16;59.34;44.60;71.91;;
18377;Laerm;9315;52.624;13.544;2023-06-19T02:11:43;59.63;43.19;74.82;;
18377;Laerm;9315;52.624;13.544;2023-06-19T02:14:11;55.39;44.74;71.73;;
18377;Laerm;9315;52.624;13.544;2023-06-19T02:16:38;62.76;43.89;75.42;;
18377;Laerm;9315;52.624;13.544;2023-06-19T02:19:07;63.01;44.89;78.13;;
18377;Laerm;9315;52.624;13.544;2023-06-19T02:21:34;60.45;45.28;73.24;;
18377;Laerm;9315;52.624;13.544;2023-06-19T02:24:01;61.94;44.61;75.63;;
18377;Laerm;9315;52.624;13.544;2023-06-19T02:26:29;59.44;45.49;74.14;;
18377;Laerm;9315;52.624;13.544;2023-06-19T02:28:56;65.17;45.90;77.89;;
18377;Laerm;9315;52.624;13.544;2023-06-19T02:31:24;61.44;45.09;75.61;;
18377;Laerm;9315;52.624;13.544;2023-06-19T02:33:53;62.51;45.85;75.20;;
18377;Laerm;9315;52.624;13.544;2023-06-19T02:36:20;61.31;47.10;71.82;;
18377;Laerm;9315;52.624;13.544;2023-06-19T02:38:51;59.42;45.69;73.14;;
18377;Laerm;9315;52.624;13.544;2023-06-19T02:41:18;61.05;47.02;73.95;;
18377;Laerm;9315;52.624;13.544;2023-06-19T02:43:45;63.84;46.43;75.16;;
18377;Laerm;9315;52.624;13.544;2023-06-19T02:46:13;65.38;47.33;78.53;;
18377;Laerm;9315;52.624;13.544;2023-06-19T02:48:41;61.13;44.85;74.22;;
18377;Laerm;9315;52.624;13.544;2023-06-19T02:51:08;63.36;47.54;74.28;;
18377;Laerm;9315;52.624;13.544;2023-06-19T02:53:35;64.72;47.66;75.50;;
18377;Laerm;9315;52.624;13.544;2023-06-19T02:56:03;60.70;48.44;71.63;;
18377;Laerm;9315;52.624;13.544;2023-06-19T02:58:31;63.76;48.70;75.42;;
18377;Laerm;9315;52.624;13.544;2023-06-19T03:00:58;65.48;46.61;79.80;;
18377;Laerm;9315;52.624;13.544;2023-06-19T03:03:25;67.11;48.81;79.49;;
18377;Laerm;9315;52.624;13.544;2023-06-19T03:05:53;65.82;49.41;77.03;;
18377;Laerm;9315;52.624;13.544;2023-06-19T03:08:20;67.59;49.96;80.20;;
18377;Laerm;9315;52.624;13.544;2023-06-19T03:10:47;66.62;47.69;77.50;;
18377;Laerm;9315;52.624;13.544;2023-06-19T03:13:14;65.98;49.66;76.50;;
18377;Laerm;9315;52.624;13.544;2023-06-19T03:15:42;67.80;48.99;79.63;;
18377;Laerm;9315;52.624;13.544;2023-06-19T03:18:09;64.86;48.18;74.00;;
18377;Laerm;9315;52.624;13.544;2023-06-19T03:20:37;66.31;49.65;73.40;;
18377;Laerm;9315;52.624;13.544;2023-06-19T03:23:04;65.07;49.98;77.27;;
18377;Laerm;9315;52.624;13.544;2023-06-19T03:25:32;66.15;50.19;77.25;;
18377;Laerm;9315;52.624;13.544;2023-06-19T03:28:02;64.28;48.31;76.38;;
18377;Laerm;9315;52.624;13.544;2023-06-19T03:30:30;66.27;49.54;82.21;;
18377;Laerm;9315;52.624;13.544;2023-06-19T03:32:57;63.85;49.46;74.29;;
18377;Laerm;9315;52.624;13.544;2023-06-19T03:35:24;66.56;49.17;77.46;;
18377;Laerm;9315;52.624;13.544;2023-06-19T03:37:52;66.29;48.97;76.37;;
18377;Laerm;9315;52.624;13.544;2023-06-19T03:40:20;70.19;52.62;79.55;;
18377;Laerm;9315;52.624;13.544;2023-06-19T03:42:47;68.07;49.25;81.29;;
18377;Laerm;9315;52.624;13.544;2023-06-19T03:45:14;66.47;49.17;75.74;;
18377;Laerm;9315;52.624;13.544;2023-06-19T03:47:42;67.63;50.85;79.49;;
18377;Laerm;9315;52.624;13.544;2023-06-19T03:50:10;66.78;47.96;79.25;;
18377;Laerm;9315;52.624;13.544;2023-06-19T03:52:47;65.64;47.70;76.55;;
18377;Laerm;9315;52.624;13.544;2023-06-19T03:55:14;67.86;48.82;77.81;;
18377;Laerm;9315;52.624;13.544;2023-06-19T03:57:41;67.18;47.92;77.90;;
18377;Laerm;9315;52.624;13.544;2023-06-19T04:00:09;68.14;49.27;81.09;;
18377;Laerm;9315;52.624;13.544;2023-06-19T04:02:41;65.91;48.89;76.11;;
18377;Laerm;9315;52.624;13.544;2023-06-19T04:05:08;66.88;48.81;75.62;;
18377;Laerm;9315;52.624;13.544;2023-06-19T04:07:36;70.24;48.26;83.68;;
18377;Laerm;9315;52.624;13.544;2023-06-19T04:10:04;67.64;47.98;77.12;;
18377;Laerm;9315;52.624;13.544;2023-06-19T04:12:31;68.65;48.24;78.96;;
18377;Laerm;9315;52.624;13.544;2023-06-19T04:14:59;68.24;48.28;76.81;;
18377;Laerm;9315;52.624;13.544;2023-06-19T04:17:26;70.14;49.68;82.42;;
18377;Laerm;9315;52.624;13.544;2023-06-19T04:19:56;67.44;48.22;77.91;;
18377;Laerm;9315;52.624;13.544;2023-06-19T04:22:23;66.79;48.75;77.71;;
18377;Laerm;9315;52.624;13.544;2023-06-19T04:24:50;70.49;51.23;81.81;;
18377;Laerm;9315;52.624;13.544;2023-06-19T04:27:18;69.21;49.43;80.21;;
18377;Laerm;9315;52.624;13.544;2023-06-19T04:29:45;68.73;51.87;80.29;;
18377;Laerm;9315;52.624;13.544;2023-06-19T04:32:12;70.67;48.89;81.70;;
18377;Laerm;9315;52.624;13.544;2023-06-19T04:34:40;68.81;49.56;78.77;;
18377;Laerm;9315;52.624;13.544;2023-06-19T04:37:12;69.11;50.47;78.75;;
18377;Laerm;9315;52.624;13.544;2023-06-19T04:39:39;69.13;50.00;79.78;;
18377;Laerm;9315;52.624;13.544;2023-06-19T04:42:07;70.06;48.92;81.95;;
18377;Laerm;9315;52.624;13.544;2023-06-19T04:44:34;69.98;49.23;81.74;;
18377;Laerm;9315;52.624;13.544;2023-06-19T04:47:01;67.80;47.13;80.30;;
18377;Laerm;9315;52.624;13.544;2023-06-19T04:49:29;68.48;48.69;76.64;;
18377;Laerm;9315;52.624;13.544;2023-06-19T04:51:57;69.72;52.73;81.09;;
18377;Laerm;9315;52.624;13.544;2023-06-19T04:54:25;69.02;50.97;78.70;;
18377;Laerm;9315;52.624;13.544;2023-06-19T04:56:53;68.44;47.67;76.70;;
18377;Laerm;9315;52.624;13.544;2023-06-19T04:59:21;67.87;46.75;78.31;;
18377;Laerm;9315;52.624;13.544;2023-06-19T05:01:48;70.29;50.37;82.78;;
18377;Laerm;9315;52.624;13.544;2023-06-19T05:04:15;66.89;48.15;76.72;;
18377;Laerm;9315;52.624;13.544;2023-06-19T05:06:43;68.02;49.55;77.98;;
18377;Laerm;9315;52.624;13.544;2023-06-19T05:09:10;67.00;46.18;78.05;;
18377;Laerm;9315;52.624;13.544;2023-06-19T05:11:37;70.13;46.27;81.83;;
18377;Laerm;9315;52.624;13.544;2023-06-19T05:14:07;68.80;49.16;79.48;;
18377;Laerm;9315;52.624;13.544;2023-06-19T05:16:34;68.78;48.03;77.44;;
18377;Laerm;9315;52.624;13.544;2023-06-19T05:19:03;69.26;50.62;77.13;;
18377;Laerm;9315;52.624;13.544;2023-06-19T05:21:31;67.75;49.29;83.97;;
18377;Laerm;9315;52.624;13.544;2023-06-19T05:23:58;68.97;48.89;76.93;;
18377;Laerm;9315;52.624;13.544;2023-06-19T05:26:25;69.22;48.80;77.05;;
18377;Laerm;9315;52.624;13.544;2023-06-19T05:28:53;70.57;48.09;80.52;;
18377;Laerm;9315;52.624;13.544;2023-06-19T05:31:20;67.49;48.25;76.61;;
18377;Laerm;9315;52.624;13.544;2023-06-19T05:33:48;67.78;52.16;77.86;;
18377;Laerm;9315;52.624;13.544;2023-06-19T05:36:15;69.01;48.96;81.44;;
18377;Laerm;9315;52.624;13.544;2023-06-19T05:38:42;70.22;53.05;81.31;;
18377;Laerm;9315;52.624;13.544;2023-06-19T05:41:13;68.03;50.85;84.59;;
18377;Laerm;9315;52.624;13.544;2023-06-19T05:43:41;69.18;52.37;82.27;;
18377;Laerm;9315;52.624;13.544;2023-06-19T05:46:08;70.68;54.34;88.31;;
18377;Laerm;9315;52.624;13.544;2023-06-19T05:48:35;70.48;58.20;81.05;;
18377;Laerm;9315;52.624;13.544;2023-06-19T05:51:03;68.54;59.06;87.33;;
18377;Laerm;9315;52.624;13.544;2023-06-19T05:53:30;71.90;58.83;89.01;;
18377;Laerm;9315;52.624;13.544;2023-06-19T05:55:58;79.08;60.88;100.51;;
18377;Laerm;9315;52.624;13.544;2023-06-19T05:58:26;71.04;62.40;81.35;;
18377;Laerm;9315;52.624;13.544;2023-06-19T06:00:53;70.25;59.80;76.82;;
18377;Laerm;9315;52.624;13.544;2023-06-19T06:03:25;67.85;56.37;80.82;;
18377;Laerm;9315;52.624;13.544;2023-06-19T06:05:55;69.53;57.93;81.09;;
18377;Laerm;9315;52.624;13.544;2023-06-19T06:08:32;66.99;57.47;75.18;;
18377;Laerm;9315;52.624;13.544;2023-06-19T06:11:00;70.87;61.89;82.25;;
18377;Laerm;9315;52.624;13.544;2023-06-19T06:13:27;70.94;65.57;81.84;;
18377;Laerm;9315;52.624;13.544;2023-06-19T06:15:54;70.34;62.42;77.26;;
18377;Laerm;9315;52.624;13.544;2023-06-19T06:18:25;70.87;54.96;82.12;;
18377;Laerm;9315;52.624;13.544;2023-06-19T06:20:52;69.82;49.46;80.51;;
18377;Laerm;9315;52.624;13.544;2023-06-19T06:23:19;69.46;50.16;78.00;;
18377;Laerm;9315;52.624;13.544;2023-06-19T06:25:46;68.83;46.61;77.00;;
18377;Laerm;9315;52.624;13.544;2023-06-19T06:28:13;68.09;44.92;78.35;;
18377;Laerm;9315;52.624;13.544;2023-06-19T06:30:41;68.12;47.23;78.20;;
18377;Laerm;9315;52.624;13.544;2023-06-19T06:33:09;68.07;45.79;81.45;;
18377;Laerm;9315;52.624;13.544;2023-06-19T06:35:36;67.90;48.07;76.84;;
18377;Laerm;9315;52.624;13.544;2023-06-19T06:38:04;68.41;46.69;79.86;;
18377;Laerm;9315;52.624;13.544;2023-06-19T06:40:31;66.36;45.15;81.34;;
18377;Laerm;9315;52.624;13.544;2023-06-19T06:42:58;68.44;45.64;82.17;;
18377;Laerm;9315;52.624;13.544;2023-06-19T06:45:25;69.56;46.94;78.60;;
18377;Laerm;9315;52.624;13.544;2023-06-19T06:47:54;67.49;46.53;76.92;;
18377;Laerm;9315;52.624;13.544;2023-06-19T06:50:21;68.81;48.80;80.52;;
18377;Laerm;9315;52.624;13.544;2023-06-19T06:52:51;72.02;47.25;93.03;;
18377;Laerm;9315;52.624;13.544;2023-06-19T06:55:19;67.63;46.21;79.60;;
18377;Laerm;9315;52.624;13.544;2023-06-19T06:57:46;80.33;49.09;104.64;;
18377;Laerm;9315;52.624;13.544;2023-06-19T07:00:14;68.93;48.85;77.99;;
18377;Laerm;9315;52.624;13.544;2023-06-19T07:02:41;67.68;45.08;77.67;;
18377;Laerm;9315;52.624;13.544;2023-06-19T07:05:09;66.31;45.48;76.49;;
18377;Laerm;9315;52.624;13.544;2023-06-19T07:07:40;69.39;45.12;82.51;;
18377;Laerm;9315;52.624;13.544;2023-06-19T07:10:08;68.45;46.86;78.29;;
18377;Laerm;9315;52.624;13.544;2023-06-19T07:12:47;68.62;46.74;80.47;;
18377;Laerm;9315;52.624;13.544;2023-06-19T07:15:16;68.15;45.46;91.55;;
18377;Laerm;9315;52.624;13.544;2023-06-19T07:17:46;68.40;46.15;78.41;;
18377;Laerm;9315;52.624;13.544;2023-06-19T07:20:14;67.69;47.84;75.44;;
18377;Laerm;9315;52.624;13.544;2023-06-19T07:22:43;66.04;43.79;77.18;;
18377;Laerm;9315;52.624;13.544;2023-06-19T07:25:12;69.61;48.13;81.94;;
18377;Laerm;9315;52.624;13.544;2023-06-19T07:27:43;70.51;49.85;81.75;;
18377;Laerm;9315;52.624;13.544;2023-06-19T07:30:11;68.72;46.05;78.54;;
18377;Laerm;9315;52.624;13.544;2023-06-19T07:32:43;66.53;47.08;75.35;;
18377;Laerm;9315;52.624;13.544;2023-06-19T07:35:11;68.98;44.35;79.69;;
18377;Laerm;9315;52.624;13.544;2023-06-19T07:37:41;67.45;44.57;79.23;;
18377;Laerm;9315;52.624;13.544;2023-06-19T07:40:12;68.69;47.29;80.18;;
18377;Laerm;9315;52.624;13.544;2023-06-19T07:42:39;68.95;45.36;79.05;;
18377;Laerm;9315;52.624;13.544;2023-06-19T07:45:11;71.32;59.73;78.91;;
18377;Laerm;9315;52.624;13.544;2023-06-19T07:47:40;70.18;58.65;80.50;;
18377;Laerm;9315;52.624;13.544;2023-06-19T07:50:08;67.59;58.74;82.92;;
18377;Laerm;9315;52.624;13.544;2023-06-19T07:52:35;67.73;58.12;76.69;;
18377;Laerm;9315;52.624;13.544;2023-06-19T07:55:03;67.63;53.35;79.01;;
18377;Laerm;9315;52.624;13.544;2023-06-19T07:57:31;69.26;55.77;77.23;;
18377;Laerm;9315;52.624;13.544;2023-06-19T07:59:58;72.91;63.64;88.63;;
18377;Laerm;9315;52.624;13.544;2023-06-19T08:02:25;71.21;61.24;85.78;;
18377;Laerm;9315;52.624;13.544;2023-06-19T08:04:54;68.84;61.12;76.99;;
18377;Laerm;9315;52.624;13.544;2023-06-19T08:07:24;70.32;63.69;77.52;;
18377;Laerm;9315;52.624;13.544;2023-06-19T08:09:51;70.27;61.88;77.93;;
18377;Laerm;9315;52.624;13.544;2023-06-19T08:12:35;68.98;60.99;81.89;;
18377;Laerm;9315;52.624;13.544;2023-06-19T08:15:05;70.21;60.59;79.94;;
18377;Laerm;9315;52.624;13.544;2023-06-19T08:17:32;69.55;58.76;78.96;;
18377;Laerm;9315;52.624;13.544;2023-06-19T08:20:06;69.81;59.19;81.36;;
18377;Laerm;9315;52.624;13.544;2023-06-19T08:22:34;67.72;57.25;80.99;;
18377;Laerm;9315;52.624;13.544;2023-06-19T08:25:02;70.44;53.38;91.10;;
18377;Laerm;9315;52.624;13.544;2023-06-19T08:27:29;70.14;56.07;83.35;;
18377;Laerm;9315;52.624;13.544;2023-06-19T08:29:57;67.37;51.80;76.50;;
18377;Laerm;9315;52.624;13.544;2023-06-19T08:32:26;66.35;52.34;78.93;;
18377;Laerm;9315;52.624;13.544;2023-06-19T08:35:04;70.18;54.65;79.15;;
18377;Laerm;9315;52.624;13.544;2023-06-19T08:37:32;69.01;50.86;81.77;;
18377;Laerm;9315;52.624;13.544;2023-06-19T08:39:59;66.99;52.97;80.28;;
18377;Laerm;9315;52.624;13.544;2023-06-19T08:42:27;69.16;54.86;89.59;;
18377;Laerm;9315;52.624;13.544;2023-06-19T08:44:56;67.90;50.27;79.75;;
18377;Laerm;9315;52.624;13.544;2023-06-19T08:47:31;68.49;50.05;80.93;;
18377;Laerm;9315;52.624;13.544;2023-06-19T08:49:59;68.42;47.96;80.61;;
18377;Laerm;9315;52.624;13.544;2023-06-19T08:52:29;68.17;42.50;82.30;;
18377;Laerm;9315;52.624;13.544;2023-06-19T08:54:56;66.45;40.63;79.51;;
18377;Laerm;9315;52.624;13.544;2023-06-19T08:57:35;69.72;47.53;83.24;;
18377;Laerm;9315;52.624;13.544;2023-06-19T09:00:04;68.31;43.21;79.04;;
18377;Laerm;9315;52.624;13.544;2023-06-19T09:02:45;67.09;45.59;78.84;;
18377;Laerm;9315;52.624;13.544;2023-06-19T09:05:27;68.82;44.85;80.60;;
18377;Laerm;9315;52.624;13.544;2023-06-19T09:08:03;68.42;51.57;79.40;;
18377;Laerm;9315;52.624;13.544;2023-06-19T09:10:30;70.13;57.44;79.74;;
18377;Laerm;9315;52.624;13.544;2023-06-19T09:13:04;78.24;65.03;87.77;;
18377;Laerm;9315;52.624;13.544;2023-06-19T09:15:37;76.00;61.84;87.49;;
18377;Laerm;9315;52.624;13.544;2023-06-19T09:18:11;68.22;48.56;82.33;;
18377;Laerm;9315;52.624;13.544;2023-06-19T09:20:44;68.48;50.48;85.12;;
18377;Laerm;9315;52.624;13.544;2023-06-19T09:23:16;67.59;43.18;84.20;;
18377;Laerm;9315;52.624;13.544;2023-06-19T09:25:51;75.23;63.56;88.52;;
18377;Laerm;9315;52.624;13.544;2023-06-19T09:28:26;68.04;45.84;81.00;;
18377;Laerm;9315;52.624;13.544;2023-06-19T09:31:02;69.17;43.69;86.57;;
18377;Laerm;9315;52.624;13.544;2023-06-19T09:33:32;67.83;46.28;79.32;;
18377;Laerm;9315;52.624;13.544;2023-06-19T09:36:04;67.94;44.36;79.45;;
18377;Laerm;9315;52.624;13.544;2023-06-19T09:38:36;77.32;48.76;102.98;;
18377;Laerm;9315;52.624;13.544;2023-06-19T09:41:06;69.22;47.40;77.54;;
18377;Laerm;9315;52.624;13.544;2023-06-19T09:43:47;68.23;45.31;81.57;;
18377;Laerm;9315;52.624;13.544;2023-06-19T09:46:19;69.20;44.52;79.75;;
18377;Laerm;9315;52.624;13.544;2023-06-19T09:48:48;66.88;43.01;84.30;;
18377;Laerm;9315;52.624;13.544;2023-06-19T09:51:27;69.12;42.36;77.38;;
18377;Laerm;9315;52.624;13.544;2023-06-19T09:54:00;69.09;45.31;79.15;;
18377;Laerm;9315;52.624;13.544;2023-06-19T09:56:30;65.71;41.94;74.39;;
18377;Laerm;9315;52.624;13.544;2023-06-19T09:58:59;67.17;41.18;79.59;;
18377;Laerm;9315;52.624;13.544;2023-06-19T10:01:29;67.08;40.66;75.72;;
18377;Laerm;9315;52.624;13.544;2023-06-19T10:04:08;69.37;41.04;79.47;;
18377;Laerm;9315;52.624;13.544;2023-06-19T10:06:46;68.39;43.83;79.06;;
18377;Laerm;9315;52.624;13.544;2023-06-19T10:09:15;67.64;46.75;78.75;;
18377;Laerm;9315;52.624;13.544;2023-06-19T10:11:51;67.79;40.03;78.89;;
18377;Laerm;9315;52.624;13.544;2023-06-19T10:14:21;66.46;40.68;78.15;;
18377;Laerm;9315;52.624;13.544;2023-06-19T10:16:49;67.36;42.01;77.84;;
18377;Laerm;9315;52.624;13.544;2023-06-19T10:19:21;66.84;46.68;76.41;;
18377;Laerm;9315;52.624;13.544;2023-06-19T10:21:53;67.63;43.95;79.98;;
18377;Laerm;9315;52.624;13.544;2023-06-19T10:24:20;67.66;42.10;83.02;;
18377;Laerm;9315;52.624;13.544;2023-06-19T10:27:09;65.61;41.11;75.25;;
18377;Laerm;9315;52.624;13.544;2023-06-19T10:29:40;68.64;49.57;78.11;;
18377;Laerm;9315;52.624;13.544;2023-06-19T10:32:17;68.66;46.25;78.84;;
18377;Laerm;9315;52.624;13.544;2023-06-19T10:34:50;68.31;49.46;76.63;;
18377;Laerm;9315;52.624;13.544;2023-06-19T10:37:35;68.19;48.18;81.78;;
18377;Laerm;9315;52.624;13.544;2023-06-19T10:40:03;70.20;46.46;82.91;;
18377;Laerm;9315;52.624;13.544;2023-06-19T10:42:39;67.67;41.19;80.67;;
18377;Laerm;9315;52.624;13.544;2023-06-19T10:45:10;66.85;41.76;78.02;;
18377;Laerm;9315;52.624;13.544;2023-06-19T10:47:42;69.71;48.21;85.47;;
18377;Laerm;9315;52.624;13.544;2023-06-19T10:50:15;69.46;44.84;82.18;;
18377;Laerm;9315;52.624;13.544;2023-06-19T10:52:45;66.48;44.91;82.41;;
18377;Laerm;9315;52.624;13.544;2023-06-19T10:55:13;67.70;50.99;77.45;;
18377;Laerm;9315;52.624;13.544;2023-06-19T10:57:45;67.37;46.28;76.58;;
18377;Laerm;9315;52.624;13.544;2023-06-19T11:00:30;67.81;46.36;76.92;;
18377;Laerm;9315;52.624;13.544;2023-06-19T11:02:58;68.35;49.97;79.03;;
18377;Laerm;9315;52.624;13.544;2023-06-19T11:05:28;67.86;46.67;77.63;;
18377;Laerm;9315;52.624;13.544;2023-06-19T11:07:58;66.99;42.14;76.71;;
18377;Laerm;9315;52.624;13.544;2023-06-19T11:10:29;68.64;50.98;79.02;;
18377;Laerm;9315;52.624;13.544;2023-06-19T11:12:58;68.71;45.48;79.79;;
18377;Laerm;9315;52.624;13.544;2023-06-19T11:15:35;68.50;42.69;80.58;;
18377;Laerm;9315;52.624;13.544;2023-06-19T11:18:03;69.75;49.92;79.45;;
18377;Laerm;9315;52.624;13.544;2023-06-19T11:20:30;69.04;48.22;80.62;;
18377;Laerm;9315;52.624;13.544;2023-06-19T11:23:01;66.95;49.63;74.73;;
18377;Laerm;9315;52.624;13.544;2023-06-19T11:25:40;67.82;47.92;80.56;;
18377;Laerm;9315;52.624;13.544;2023-06-19T11:28:16;68.40;47.58;78.78;;
18377;Laerm;9315;52.624;13.544;2023-06-19T11:31:02;69.64;43.90;80.91;;
18377;Laerm;9315;52.624;13.544;2023-06-19T11:33:30;67.09;43.36;78.58;;
18377;Laerm;9315;52.624;13.544;2023-06-19T11:36:04;69.08;45.41;83.42;;
18377;Laerm;9315;52.624;13.544;2023-06-19T11:38:31;69.93;48.48;88.07;;
18377;Laerm;9315;52.624;13.544;2023-06-19T11:41:03;69.65;45.19;83.24;;
18377;Laerm;9315;52.624;13.544;2023-06-19T11:43:32;68.17;47.90;78.56;;
18377;Laerm;9315;52.624;13.544;2023-06-19T11:46:07;72.71;50.13;84.80;;
18377;Laerm;9315;52.624;13.544;2023-06-19T11:48:43;69.05;50.18;78.93;;
18377;Laerm;9315;52.624;13.544;2023-06-19T11:51:29;67.47;48.13;77.17;;
18377;Laerm;9315;52.624;13.544;2023-06-19T11:53:57;68.90;49.86;77.45;;
18377;Laerm;9315;52.624;13.544;2023-06-19T11:56:24;64.52;44.68;76.38;;
18377;Laerm;9315;52.624;13.544;2023-06-19T11:58:53;68.35;47.59;78.69;;
18377;Laerm;9315;52.624;13.544;2023-06-19T12:01:23;68.03;49.23;80.90;;
18377;Laerm;9315;52.624;13.544;2023-06-19T12:03:50;69.74;52.80;80.69;;
18377;Laerm;9315;52.624;13.544;2023-06-19T12:06:18;66.83;49.03;74.54;;
18377;Laerm;9315;52.624;13.544;2023-06-19T12:08:45;69.50;53.45;81.99;;
18377;Laerm;9315;52.624;13.544;2023-06-19T12:11:12;73.68;60.78;90.23;;
18377;Laerm;9315;52.624;13.544;2023-06-19T12:13:41;70.36;62.13;86.03;;
18377;Laerm;9315;52.624;13.544;2023-06-19T12:16:10;70.31;52.31;83.17;;
18377;Laerm;9315;52.624;13.544;2023-06-19T12:18:38;68.50;52.27;77.46;;
18377;Laerm;9315;52.624;13.544;2023-06-19T12:21:05;67.09;51.12;78.18;;
18377;Laerm;9315;52.624;13.544;2023-06-19T12:23:43;68.94;47.25;80.19;;
18377;Laerm;9315;52.624;13.544;2023-06-19T12:26:11;66.41;44.21;75.95;;
18377;Laerm;9315;52.624;13.544;2023-06-19T12:28:38;67.61;46.47;76.10;;
18377;Laerm;9315;52.624;13.544;2023-06-19T12:31:06;68.39;43.87;84.36;;
18377;Laerm;9315;52.624;13.544;2023-06-19T12:33:34;68.99;46.87;77.05;;
18377;Laerm;9315;52.624;13.544;2023-06-19T12:36:04;67.44;48.08;76.58;;
18377;Laerm;9315;52.624;13.544;2023-06-19T12:38:35;68.27;46.53;78.68;;
18377;Laerm;9315;52.624;13.544;2023-06-19T12:41:04;68.56;44.81;79.95;;
18377;Laerm;9315;52.624;13.544;2023-06-19T12:43:32;69.21;48.37;80.34;;
18377;Laerm;9315;52.624;13.544;2023-06-19T12:46:00;69.00;51.49;76.18;;
18377;Laerm;9315;52.624;13.544;2023-06-19T12:48:31;67.72;46.49;77.99;;
18377;Laerm;9315;52.624;13.544;2023-06-19T12:50:59;68.21;51.28;76.31;;
18377;Laerm;9315;52.624;13.544;2023-06-19T12:53:26;69.06;46.82;83.06;;
18377;Laerm;9315;52.624;13.544;2023-06-19T12:55:58;69.00;44.98;77.78;;
18377;Laerm;9315;52.624;13.544;2023-06-19T12:58:31;67.34;43.74;77.10;;
18377;Laerm;9315;52.624;13.544;2023-06-19T13:01:01;68.38;43.61;79.82;;
18377;Laerm;9315;52.624;13.544;2023-06-19T13:03:28;82.94;50.47;107.99;;
18377;Laerm;9315;52.624;13.544;2023-06-19T13:05:55;67.63;44.41;80.27;;
18377;Laerm;9315;52.624;13.544;2023-06-19T13:08:23;67.54;47.98;75.67;;
18377;Laerm;9315;52.624;13.544;2023-06-19T13:10:50;69.39;48.82;82.81;;
18377;Laerm;9315;52.624;13.544;2023-06-19T13:13:17;68.49;43.94;80.56;;
18377;Laerm;9315;52.624;13.544;2023-06-19T13:15:44;69.62;45.80;79.05;;
18377;Laerm;9315;52.624;13.544;2023-06-19T13:18:11;66.77;42.34;74.89;;
18377;Laerm;9315;52.624;13.544;2023-06-19T13:20:42;67.13;44.37;79.02;;
18377;Laerm;9315;52.624;13.544;2023-06-19T13:23:09;68.85;49.44;78.25;;
18377;Laerm;9315;52.624;13.544;2023-06-19T13:25:36;69.16;47.12;80.87;;
18377;Laerm;9315;52.624;13.544;2023-06-19T13:28:06;68.39;52.00;79.55;;
18377;Laerm;9315;52.624;13.544;2023-06-19T13:30:36;69.17;47.89;82.98;;
18377;Laerm;9315;52.624;13.544;2023-06-19T13:33:03;66.42;46.59;74.83;;
18377;Laerm;9315;52.624;13.544;2023-06-19T13:35:31;68.16;45.84;79.15;;
18377;Laerm;9315;52.624;13.544;2023-06-19T13:37:58;67.14;43.61;76.09;;
18377;Laerm;9315;52.624;13.544;2023-06-19T13:40:29;67.94;47.94;79.50;;
18377;Laerm;9315;52.624;13.544;2023-06-19T13:42:56;67.16;47.73;76.71;;
18377;Laerm;9315;52.624;13.544;2023-06-19T13:45:26;68.70;45.78;77.56;;
18377;Laerm;9315;52.624;13.544;2023-06-19T13:47:54;69.31;46.89;80.39;;
18377;Laerm;9315;52.624;13.544;2023-06-19T13:50:27;68.00;55.62;79.68;;
18377;Laerm;9315;52.624;13.544;2023-06-19T13:52:54;68.36;48.25;75.74;;
18377;Laerm;9315;52.624;13.544;2023-06-19T13:55:22;69.12;49.78;78.50;;
18377;Laerm;9315;52.624;13.544;2023-06-19T13:57:50;68.04;46.87;76.52;;